Terminal Aerodrome Forecast
Issued by NWS

Home | Current Version | Previous Version | Text Only | Print | Product List | Glossary On
Versions: 1 2 3 4 5 6 7 8 9 10 11 12 13 14 15 16 17 18 19 20 21 22 23 24 25 26 27 28 29 30 31
000
FTUS46 KMTR 240000 AAA
TAFSFO
TAF AMD
KSFO 240028Z 2400/2506 27016G20KT P6SM FEW006
      TEMPO 2401/2404 BKN008
     FM240400 27010KT P6SM BKN008
     FM240700 25006KT P6SM OVC008
     FM241800 22005KT P6SM SCT010 BKN025 BKN100
     FM242200 24013KT P6SM BKN050 OVC100
     FM250300 25007KT P6SM OVC100=

USA.gov is the U.S. government's official web portal to all federal, state and local government web resources and services.